Time;durP1;ratioP1;P1;durP2;ratioP2;P2;SDS_P1;SDS_P2;PMS_P1;PMS_P2;Temp;Humidity;BMP_temperature;BMP_pressure;BME280_temperature;BME280_humidity;BME280_pressure;Samples;Min_cycle;Max_cycle;Signal;HPM_P1;HPM_P2
2022/01/21 00:01:58;;;;;;;55.30;52.58;;;;;;;-0.36;59.75;102132.03;5046798;28;20040;-70
2022/01/21 00:04:25;;;;;;;62.33;59.33;;;;;;;-0.03;58.85;102127.34;5046690;28;20420;-70
2022/01/21 00:06:51;;;;;;;94.45;88.80;;;;;;;-0.25;58.86;102127.91;5046692;28;20064;-70
2022/01/21 00:09:18;;;;;;;60.22;56.65;;;;;;;-0.32;59.48;102131.25;5045891;28;20156;-70
2022/01/21 00:11:45;;;;;;;65.22;61.70;;;;;;;-0.16;58.37;102116.88;5049178;28;20052;-71
2022/01/21 00:14:12;;;;;;;70.72;67.22;;;;;;;-0.13;58.59;102124.63;5047590;28;20063;-70
2022/01/21 00:16:39;;;;;;;68.60;64.90;;;;;;;-0.21;58.58;102134.84;5048862;28;20049;-70
2022/01/21 00:19:10;;;;;;;57.05;53.97;;;;;;;-0.33;58.84;102142.38;5047893;28;20053;-70
2022/01/21 00:30:12;;;;;;;66.47;62.22;;;;;;;-0.32;58.24;102153.56;5026101;28;20060;-70
2022/01/21 00:32:39;;;;;;;147.95;140.02;;;;;;;-0.60;58.50;102160.00;5030938;28;20045;-70
2022/01/21 00:35:07;;;;;;;144.75;135.75;;;;;;;-0.62;58.33;102143.63;5035756;28;20384;-70
2022/01/21 00:37:33;;;;;;;45.03;42.95;;;;;;;-0.26;57.97;102158.84;5046249;28;20045;-70
2022/01/21 00:40:01;;;;;;;95.97;90.97;;;;;;;-0.36;57.95;102164.66;5045406;28;20044;-70
2022/01/21 00:42:47;;;;;;;113.82;107.28;;;;;;;-0.78;58.79;102155.41;5046941;28;20515;-70
2022/01/21 00:45:16;;;;;;;53.90;51.20;;;;;;;-0.43;58.36;102165.41;5033996;28;20124;-70
2022/01/21 00:47:43;;;;;;;49.15;46.08;;;;;;;-0.16;57.08;102171.88;5046152;28;20397;-71
2022/01/21 00:50:10;;;;;;;43.58;41.30;;;;;;;-0.29;57.85;102169.94;5042626;28;20546;-70
2022/01/21 00:52:37;;;;;;;41.67;39.25;;;;;;;0.10;56.32;102181.69;5045864;28;20045;-70
2022/01/21 00:55:04;;;;;;;61.17;58.50;;;;;;;-0.43;57.70;102175.72;5045702;28;20107;-70
2022/01/21 00:57:31;;;;;;;44.72;42.72;;;;;;;-0.04;56.77;102182.34;5047172;28;20091;-70
2022/01/21 00:59:58;;;;;;;39.38;37.58;;;;;;;0.07;56.33;102179.06;5049071;28;20052;-70
2022/01/21 01:02:24;;;;;;;41.47;39.13;;;;;;;0.07;56.41;102186.81;5048575;28;20049;-70
2022/01/21 01:04:50;;;;;;;47.08;44.70;;;;;;;-0.01;56.57;102189.28;5048821;28;20467;-70
2022/01/21 01:07:19;;;;;;;42.38;40.38;;;;;;;-0.41;57.63;102189.50;5053956;28;20442;-70
2022/01/21 01:09:51;;;;;;;81.20;76.82;;;;;;;-0.22;57.01;102188.97;5049899;28;20064;-70
2022/01/21 01:12:27;;;;;;;61.83;58.85;;;;;;;-0.52;57.37;102181.63;5052083;28;20077;-70
2022/01/21 01:20:23;;;;;;;50.70;48.13;;;;;;;-0.20;56.80;102171.78;5044711;28;20079;-70
2022/01/21 01:22:55;;;;;;;49.67;47.22;;;;;;;-0.02;56.36;102177.22;5048250;28;20048;-70
2022/01/21 01:28:06;;;;;;;56.58;53.80;;;;;;;-0.24;57.40;102172.59;5039649;28;20084;-70
2022/01/21 01:30:36;;;;;;;51.47;48.97;;;;;;;-0.37;57.64;102181.84;5049886;28;20562;-70
2022/01/21 01:33:07;;;;;;;65.10;62.10;;;;;;;-0.44;57.77;102177.44;5046680;28;20045;-70
2022/01/21 01:35:33;;;;;;;58.63;55.67;;;;;;;-0.47;58.11;102177.38;5047620;28;20285;-70
2022/01/21 01:40:45;;;;;;;66.78;63.80;;;;;;;-0.39;58.13;102178.38;5047045;28;20037;-71
2022/01/21 01:51:24;;;;;;;69.97;66.20;;;;;;;-0.45;58.74;102173.13;5048088;28;20102;-70
2022/01/21 01:53:54;;;;;;;58.45;55.35;;;;;;;-0.40;58.38;102174.06;5048742;28;20111;-70
2022/01/21 01:56:25;;;;;;;84.32;80.38;;;;;;;-0.45;58.24;102170.56;5038791;28;20068;-70
2022/01/21 01:58:51;;;;;;;56.85;54.10;;;;;;;-0.58;58.72;102159.19;5048262;28;20107;-70
2022/01/21 02:01:19;;;;;;;74.00;70.05;;;;;;;-0.69;59.22;102170.13;5049170;28;20095;-70
2022/01/21 02:03:45;;;;;;;130.95;124.40;;;;;;;-0.76;59.21;102173.47;5047656;28;20421;-70
2022/01/21 02:06:12;;;;;;;54.22;51.65;;;;;;;-0.39;58.52;102170.66;5048609;28;20664;-70
2022/01/21 02:08:38;;;;;;;168.55;155.50;;;;;;;-0.70;58.25;102163.28;5047889;28;20459;-70
2022/01/21 02:11:05;;;;;;;69.60;66.20;;;;;;;-0.62;58.66;102167.69;5051766;28;20071;-70
2022/01/21 02:13:34;;;;;;;58.42;55.30;;;;;;;-0.62;58.92;102148.78;5039566;28;20102;-70
2022/01/21 02:16:06;;;;;;;91.82;87.55;;;;;;;-0.43;58.10;102168.88;5040026;28;20037;-70
2022/01/21 02:21:30;;;;;;;58.05;55.13;;;;;;;-0.50;58.57;102177.34;5048705;28;20083;-70
2022/01/21 02:23:57;;;;;;;143.75;136.23;;;;;;;-0.79;59.16;102179.44;5047158;28;20041;-70
2022/01/21 02:26:24;;;;;;;96.05;91.72;;;;;;;-1.02;60.34;102183.28;5048837;28;20044;-70
2022/01/21 02:28:52;;;;;;;69.93;66.63;;;;;;;-0.54;59.30;102180.69;5047643;28;20068;-69
2022/01/21 02:31:18;;;;;;;241.05;227.68;;;;;;;-0.83;59.37;102187.06;5048818;28;20144;-70
2022/01/21 02:33:45;;;;;;;63.45;60.58;;;;;;;-0.66;59.86;102170.19;5043363;28;20048;-70
2022/01/21 02:36:11;;;;;;;95.47;90.68;;;;;;;-1.05;61.09;102184.13;5048800;28;20041;-71
2022/01/21 02:38:39;;;;;;;122.00;114.45;;;;;;;-1.05;60.90;102181.53;5047415;28;20118;-70
2022/01/21 02:41:05;;;;;;;68.47;64.70;;;;;;;-0.75;60.22;102180.34;5047923;28;20041;-70
2022/01/21 02:43:32;;;;;;;102.72;96.80;;;;;;;-1.09;61.29;102177.16;5047997;28;20045;-70
2022/01/21 02:46:03;;;;;;;57.22;54.10;;;;;;;-0.82;60.63;102168.22;5046982;28;20492;-70
2022/01/21 02:48:34;;;;;;;219.35;204.38;;;;;;;-0.76;59.75;102168.31;5049200;28;20128;-70
2022/01/21 02:51:01;;;;;;;70.18;66.70;;;;;;;-0.98;61.18;102167.94;5046584;28;20044;-70
2022/01/21 02:53:39;;;;;;;123.45;116.45;;;;;;;-0.99;61.28;102171.34;5050413;28;20049;-70
2022/01/21 02:56:09;;;;;;;120.05;113.38;;;;;;;-1.14;61.62;102165.91;5030874;28;20053;-70
2022/01/21 02:58:36;;;;;;;168.83;158.03;;;;;;;-1.03;60.57;102148.97;5033086;28;20124;-70
2022/01/21 03:01:03;;;;;;;34.22;32.28;;;;;;;-0.78;60.74;102158.00;5048615;28;20107;-70
2022/01/21 03:03:29;;;;;;;185.68;173.00;;;;;;;-0.99;61.08;102149.88;5047562;28;20067;-70
2022/01/21 03:05:56;;;;;;;207.82;195.52;;;;;;;-1.03;61.17;102145.50;5031685;28;20049;-70
2022/01/21 03:08:23;;;;;;;152.35;143.65;;;;;;;-0.93;60.67;102144.84;5030658;28;20041;-70
2022/01/21 03:10:50;;;;;;;137.73;131.00;;;;;;;-1.09;61.47;102161.72;5048268;28;20057;-70
2022/01/21 03:13:18;;;;;;;40.63;38.22;;;;;;;-0.85;61.04;102169.00;5041561;28;20041;-70
2022/01/21 03:15:44;;;;;;;66.50;62.83;;;;;;;-0.68;60.12;102159.00;5043513;28;20500;-70
2022/01/21 03:18:11;;;;;;;53.20;49.97;;;;;;;-0.92;60.92;102158.59;5050085;28;20167;-70
2022/01/21 03:20:37;;;;;;;36.78;34.42;;;;;;;-0.86;60.80;102171.56;5048076;28;20045;-70
2022/01/21 03:23:04;;;;;;;52.40;49.88;;;;;;;-0.80;60.61;102176.81;5049747;28;20096;-70
2022/01/21 03:25:30;;;;;;;45.08;42.47;;;;;;;-1.01;61.51;102188.47;5038998;28;20451;-70
2022/01/21 03:27:56;;;;;;;101.63;95.72;;;;;;;-0.87;61.26;102172.41;5030394;28;20064;-70
2022/01/21 03:30:24;;;;;;;35.60;33.67;;;;;;;-0.69;60.82;102172.72;5049482;28;20064;-70
2022/01/21 03:32:50;;;;;;;136.77;127.10;;;;;;;-0.97;61.32;102173.97;5049052;28;20045;-70
2022/01/21 03:35:17;;;;;;;38.10;35.50;;;;;;;-0.77;61.27;102175.16;5045097;28;20049;-70
2022/01/21 03:37:43;;;;;;;32.28;30.10;;;;;;;-0.48;60.47;102177.38;5038710;28;20071;-70
2022/01/21 03:40:10;;;;;;;37.28;35.15;;;;;;;-0.84;61.27;102178.47;5044282;28;20049;-70
2022/01/21 03:42:37;;;;;;;32.63;30.63;;;;;;;-0.50;60.81;102178.22;5049373;28;20076;-70
2022/01/21 03:45:03;;;;;;;35.60;32.97;;;;;;;-0.57;60.86;102172.94;5047582;28;20049;-70
2022/01/21 03:47:31;;;;;;;30.30;28.38;;;;;;;-0.74;61.50;102184.66;5049287;28;20496;-70
2022/01/21 03:50:18;;;;;;;33.53;31.55;;;;;;;-0.83;62.21;102187.06;5048419;28;20496;-70
2022/01/21 03:52:44;;;;;;;40.35;36.95;;;;;;;-0.34;60.82;102187.06;5042369;28;20129;-70
2022/01/21 03:55:10;;;;;;;34.85;32.50;;;;;;;-0.21;60.15;102183.81;5048617;28;20098;-70
2022/01/21 03:57:37;;;;;;;35.72;33.20;;;;;;;-0.19;60.33;102182.16;5048907;28;20040;-70
2022/01/21 04:00:04;;;;;;;48.42;45.90;;;;;;;-0.63;62.08;102186.56;5049319;28;20098;-70
2022/01/21 04:02:32;;;;;;;47.95;44.42;;;;;;;-0.55;62.16;102181.53;5047884;28;20052;-70
2022/01/21 04:04:58;;;;;;;51.85;48.97;;;;;;;-0.53;62.31;102179.88;5048941;28;20049;-70
2022/01/21 04:07:25;;;;;;;57.40;53.45;;;;;;;-0.67;63.28;102189.09;5035554;28;20099;-70
2022/01/21 04:09:51;;;;;;;60.33;56.88;;;;;;;-0.66;63.67;102190.78;5043211;28;20094;-70
2022/01/21 04:12:17;;;;;;;59.13;54.58;;;;;;;-0.70;64.02;102186.47;5049006;28;20045;-70
2022/01/21 04:14:44;;;;;;;131.55;123.90;;;;;;;-1.12;66.64;102187.41;5048436;28;20041;-70
2022/01/21 04:17:10;;;;;;;35.80;33.88;;;;;;;-0.74;65.56;102182.09;5062445;28;20040;-70
2022/01/21 04:19:38;;;;;;;78.85;74.45;;;;;;;-0.65;65.40;102167.66;5041803;28;20102;-70
2022/01/21 04:22:06;;;;;;;91.00;84.60;;;;;;;-0.68;66.26;102162.44;5048464;28;20472;-70
2022/01/21 04:24:32;;;;;;;41.47;38.97;;;;;;;-0.50;65.77;102159.31;5047659;28;20444;-70
2022/01/21 04:26:58;;;;;;;40.60;38.10;;;;;;;-0.33;65.47;102167.31;5048932;28;20045;-70
2022/01/21 04:29:25;;;;;;;53.22;50.28;;;;;;;-0.09;64.60;102155.66;5045219;28;20048;-70
2022/01/21 04:31:51;;;;;;;56.95;53.75;;;;;;;-0.26;65.85;102161.41;5047162;28;20061;-70
2022/01/21 04:34:17;;;;;;;37.65;35.53;;;;;;;-0.31;66.21;102158.75;5048520;28;20064;-70
2022/01/21 04:36:45;;;;;;;43.05;39.80;;;;;;;-0.46;66.44;102155.06;5048140;28;20489;-70
2022/01/21 04:39:18;;;;;;;40.15;37.70;;;;;;;-0.42;66.81;102162.88;5048851;28;20045;-70
2022/01/21 04:47:15;;;;;;;31.52;29.08;;;;;;;-0.30;66.29;102155.34;5047414;28;20080;-70
2022/01/21 04:47:24;;;;;;;134.45;126.18;;;;;;;-0.71;69.21;102154.69;5047591;28;20048;-70
2022/01/21 04:49:51;;;;;;;115.70;108.63;;;;;;;-0.75;70.20;102162.31;5046712;28;20052;-70
2022/01/21 04:52:19;;;;;;;52.28;48.63;;;;;;;-0.21;68.71;102162.31;5049203;28;20040;-70
2022/01/21 04:54:46;;;;;;;138.48;131.13;;;;;;;-0.55;70.51;102166.09;5048140;28;20045;-70
2022/01/21 04:57:12;;;;;;;79.70;74.93;;;;;;;-0.30;70.65;102165.66;5042922;28;20476;-70
2022/01/21 04:59:40;;;;;;;91.90;85.18;;;;;;;-0.17;69.94;102170.13;5045244;28;20053;-70
2022/01/21 05:02:07;;;;;;;91.78;86.43;;;;;;;-0.39;71.69;102165.50;5040519;28;20045;-70
2022/01/21 05:04:33;;;;;;;103.25;97.35;;;;;;;-0.28;72.11;102165.66;5048819;28;20064;-70
2022/01/21 05:07:02;;;;;;;191.18;180.75;;;;;;;-0.52;73.62;102166.16;5049555;28;20045;-70
2022/01/21 05:09:32;;;;;;;127.15;119.85;;;;;;;-0.54;74.65;102168.69;5048868;28;20481;-70
2022/01/21 05:12:00;;;;;;;82.77;78.80;;;;;;;-0.15;72.97;102165.84;5049623;28;20045;-70
2022/01/21 05:14:41;;;;;;;124.97;118.47;;;;;;;0.02;72.50;102178.13;5041821;28;20284;-70
2022/01/21 05:17:09;;;;;;;252.40;235.07;;;;;;;-0.23;73.77;102167.47;5030434;28;20045;-70
2022/01/21 05:19:36;;;;;;;98.10;92.35;;;;;;;-0.07;73.43;102161.69;5046699;28;20493;-70
2022/01/21 05:22:04;;;;;;;109.68;103.82;;;;;;;0.06;73.08;102161.84;5048881;28;20041;-70
2022/01/21 05:24:32;;;;;;;83.35;78.78;;;;;;;0.31;72.75;102162.19;5043062;28;20044;-70
2022/01/21 05:27:01;;;;;;;385.83;347.40;;;;;;;-0.46;75.89;102163.66;5048936;28;20098;-70
2022/01/21 05:29:29;;;;;;;74.18;69.50;;;;;;;-0.31;76.35;102156.19;5047080;28;20059;-70
2022/01/21 05:31:57;;;;;;;72.85;68.53;;;;;;;-0.26;76.13;102163.97;5046717;28;20037;-70
2022/01/21 05:34:23;;;;;;;123.40;115.47;;;;;;;-0.45;76.66;102156.81;5044959;28;20488;-70
2022/01/21 05:36:50;;;;;;;215.63;199.38;;;;;;;-0.46;77.42;102165.38;5047711;28;20560;-70
2022/01/21 05:39:18;;;;;;;123.32;114.97;;;;;;;-0.34;76.99;102158.72;5047476;28;20045;-70
2022/01/21 05:41:50;;;;;;;132.02;121.57;;;;;;;-0.07;76.10;102166.84;5049442;28;20045;-70
2022/01/21 05:46:22;;;;;;;85.05;80.05;;;;;;;-0.17;76.94;102162.41;5049826;28;20047;-70
2022/01/21 05:47:06;;;;;;;111.78;105.80;;;;;;;-0.21;77.03;102160.63;5052883;28;20053;-70
2022/01/21 05:49:36;;;;;;;101.30;95.07;;;;;;;-0.20;77.60;102151.19;5050068;28;20447;-70
2022/01/21 05:52:07;;;;;;;127.87;120.03;;;;;;;0.08;76.17;102148.13;5044486;28;20409;-70
2022/01/21 05:54:34;;;;;;;85.25;80.88;;;;;;;0.35;75.13;102140.75;5039887;28;20045;-71
2022/01/21 05:57:06;;;;;;;75.28;69.72;;;;;;;0.68;73.56;102131.66;5053668;28;20041;-70
2022/01/21 05:59:32;;;;;;;95.10;89.50;;;;;;;0.47;73.92;102137.47;5051960;28;20049;-71
2022/01/21 06:01:58;;;;;;;234.60;218.75;;;;;;;0.00;75.62;102129.97;5049173;28;20111;-70
2022/01/21 06:04:25;;;;;;;185.93;172.68;;;;;;;-0.02;76.51;102131.69;5051152;28;20106;-70
2022/01/21 06:06:52;;;;;;;69.82;65.22;;;;;;;0.12;76.59;102128.41;5052800;28;20103;-70
2022/01/21 06:09:18;;;;;;;76.30;70.85;;;;;;;-0.13;77.48;102127.22;5051729;28;20037;-70
2022/01/21 06:11:44;;;;;;;97.60;91.47;;;;;;;-0.07;77.64;102132.44;5052816;28;20095;-70
2022/01/21 06:14:12;;;;;;;81.25;75.72;;;;;;;0.42;75.18;102128.78;5052669;28;20049;-70
2022/01/21 06:16:40;;;;;;;102.15;95.03;;;;;;;-0.01;76.81;102132.56;5073345;28;20048;-70
2022/01/21 06:19:06;;;;;;;138.10;129.95;;;;;;;-0.16;77.64;102127.19;5070216;28;20048;-71
2022/01/21 06:21:33;;;;;;;79.90;75.53;;;;;;;0.13;77.26;102132.72;5051762;28;20049;-71
2022/01/21 06:23:59;;;;;;;89.88;84.85;;;;;;;0.50;75.60;102137.50;5053617;28;20041;-71
2022/01/21 06:26:26;;;;;;;94.03;88.20;;;;;;;0.53;76.22;102122.03;5052285;28;20067;-71
2022/01/21 06:28:52;;;;;;;291.75;273.73;;;;;;;0.17;77.13;102130.22;5051624;28;20504;-70
2022/01/21 06:31:20;;;;;;;95.03;88.78;;;;;;;0.45;76.82;102133.97;5052610;28;20065;-71
2022/01/21 06:33:46;;;;;;;94.05;87.82;;;;;;;0.33;77.40;102123.53;5052338;28;20048;-70
2022/01/21 06:36:13;;;;;;;117.53;110.18;;;;;;;0.35;77.31;102130.44;5053370;28;20049;-71
2022/01/21 06:38:39;;;;;;;96.50;91.03;;;;;;;0.87;75.67;102141.34;5052371;28;20037;-70
2022/01/21 06:41:06;;;;;;;100.47;94.60;;;;;;;1.00;75.19;102153.50;5039006;28;20050;-71
2022/01/21 06:43:32;;;;;;;117.25;110.55;;;;;;;0.83;75.73;102144.75;5052646;28;20513;-70
2022/01/21 06:45:58;;;;;;;123.32;116.63;;;;;;;0.90;76.07;102155.16;5060046;28;20033;-70
2022/01/21 06:48:26;;;;;;;122.45;114.95;;;;;;;1.27;74.77;102151.19;5071036;28;20055;-71
2022/01/21 06:50:52;;;;;;;99.03;92.95;;;;;;;1.23;74.89;102143.41;5072074;28;20045;-71
2022/01/21 06:53:19;;;;;;;110.78;104.05;;;;;;;1.38;74.55;102156.44;5064381;28;20051;-70
2022/01/21 06:55:46;;;;;;;102.47;96.72;;;;;;;1.14;75.76;102164.00;5055258;28;20032;-70
2022/01/21 06:58:12;;;;;;;229.18;216.60;;;;;;;1.23;75.33;102152.03;5054181;28;20045;-71
2022/01/21 07:00:38;;;;;;;123.00;115.60;;;;;;;1.36;74.55;102156.47;5065522;28;20029;-71
2022/01/21 07:03:05;;;;;;;158.15;147.98;;;;;;;1.15;75.64;102139.88;5074948;28;20045;-71
2022/01/21 07:05:32;;;;;;;119.88;111.90;;;;;;;1.18;75.33;102142.50;5050593;28;20060;-70
2022/01/21 07:08:00;;;;;;;87.72;82.60;;;;;;;1.33;75.21;102140.91;5033244;28;20041;-71
2022/01/21 07:10:29;;;;;;;162.52;154.52;;;;;;;1.44;74.49;102139.28;5049379;28;20106;-71
2022/01/21 07:12:56;;;;;;;139.65;132.00;;;;;;;2.02;72.65;102142.28;5035721;28;20045;-70
2022/01/21 07:15:23;;;;;;;124.60;117.47;;;;;;;1.77;73.46;102145.56;5046083;28;20497;-71
2022/01/21 07:17:52;;;;;;;79.68;73.72;;;;;;;1.88;72.65;102149.09;5049034;28;20466;-70
2022/01/21 07:20:19;;;;;;;113.53;107.40;;;;;;;1.71;73.57;102150.66;5049680;28;20044;-71
2022/01/21 07:22:48;;;;;;;145.27;135.55;;;;;;;1.80;73.19;102151.63;5049726;28;20098;-72
2022/01/21 07:25:14;;;;;;;114.90;107.90;;;;;;;1.67;74.67;102149.78;5049862;28;20480;-71
2022/01/21 07:27:41;;;;;;;120.53;114.10;;;;;;;1.77;74.10;102150.75;5048435;28;20041;-70
2022/01/21 07:30:09;;;;;;;172.13;163.50;;;;;;;1.61;74.78;102157.50;5049162;28;20086;-71
2022/01/21 07:32:35;;;;;;;113.85;107.25;;;;;;;1.68;75.07;102154.13;5048769;28;20045;-71
2022/01/21 07:35:02;;;;;;;107.28;101.28;;;;;;;1.58;75.57;102143.69;5049310;28;20049;-71
2022/01/21 07:37:28;;;;;;;106.97;101.75;;;;;;;1.64;75.71;102139.44;5050838;28;20095;-71
2022/01/21 07:39:56;;;;;;;133.48;125.22;;;;;;;1.72;74.96;102144.66;5048692;28;20098;-71
2022/01/21 07:42:24;;;;;;;185.52;174.55;;;;;;;1.47;75.96;102143.63;5050321;28;20218;-70
2022/01/21 07:44:50;;;;;;;80.32;74.97;;;;;;;1.67;75.82;102148.91;5049717;28;20055;-70
2022/01/21 07:47:17;;;;;;;99.30;93.05;;;;;;;1.96;74.67;102143.06;5049297;28;20090;-72
2022/01/21 07:49:43;;;;;;;101.85;95.45;;;;;;;2.17;73.80;102157.88;5050826;28;20045;-72
2022/01/21 07:52:10;;;;;;;96.85;91.32;;;;;;;2.15;74.12;102156.97;5049739;28;20049;-71
2022/01/21 07:54:36;;;;;;;179.13;168.30;;;;;;;2.08;74.31;102162.97;5042227;28;20436;-72
2022/01/21 07:57:04;;;;;;;76.97;72.35;;;;;;;2.17;73.93;102181.16;5029823;28;20567;-71
2022/01/21 07:59:31;;;;;;;78.57;73.82;;;;;;;2.30;73.61;102172.59;5043211;28;20067;-71
2022/01/21 08:01:58;;;;;;;63.92;59.00;;;;;;;2.36;73.81;102182.13;5048491;28;20044;-70
2022/01/21 08:04:24;;;;;;;97.75;91.82;;;;;;;2.08;74.45;102172.47;5048175;28;20045;-72
2022/01/21 08:06:51;;;;;;;76.55;72.10;;;;;;;2.17;74.58;102169.94;5048995;28;20102;-71
2022/01/21 08:09:23;;;;;;;97.55;91.45;;;;;;;2.27;74.14;102170.00;5034768;28;20041;-71
2022/01/21 08:11:50;;;;;;;84.80;80.47;;;;;;;2.37;73.95;102168.31;5049667;28;20056;-71
2022/01/21 08:14:17;;;;;;;265.25;248.35;;;;;;;2.57;73.12;102173.56;5040189;28;20071;-70
2022/01/21 08:16:44;;;;;;;220.07;208.98;;;;;;;2.17;74.26;102175.13;5056334;28;20040;-70
2022/01/21 08:19:10;;;;;;;260.70;246.63;;;;;;;1.93;75.67;102173.25;5042205;28;20092;-71
2022/01/21 08:21:36;;;;;;;117.57;110.70;;;;;;;2.15;75.07;102182.00;5051879;28;20044;-71
2022/01/21 08:24:06;;;;;;;134.32;127.40;;;;;;;2.32;74.17;102182.97;5045563;28;20048;-71
2022/01/21 08:26:32;;;;;;;138.55;131.30;;;;;;;2.24;74.48;102189.81;5049467;28;20098;-71
2022/01/21 08:28:58;;;;;;;165.52;156.55;;;;;;;2.12;74.96;102187.16;5048180;28;20048;-71
2022/01/21 08:31:26;;;;;;;222.52;210.70;;;;;;;1.89;75.21;102180.13;5048166;28;20095;-71
2022/01/21 08:33:53;;;;;;;153.18;145.07;;;;;;;2.04;75.40;102199.16;5048886;28;20068;-71
2022/01/21 08:36:20;;;;;;;195.48;185.32;;;;;;;2.00;75.59;102200.00;5030629;28;20068;-71
2022/01/21 08:38:46;;;;;;;181.10;172.52;;;;;;;2.17;75.17;102214.81;5036891;28;20102;-71
2022/01/21 08:41:13;;;;;;;281.85;263.80;;;;;;;2.35;74.52;102212.31;5048071;28;20492;-71
2022/01/21 08:43:40;;;;;;;371.33;344.55;;;;;;;2.05;75.17;102216.44;5046747;28;20053;-71
2022/01/21 08:46:07;;;;;;;178.98;170.20;;;;;;;2.39;74.55;102208.88;5049453;28;20069;-71
2022/01/21 08:48:35;;;;;;;400.10;368.73;;;;;;;2.43;74.60;102220.13;5046505;28;20053;-71
2022/01/21 08:51:08;;;;;;;109.72;103.90;;;;;;;2.29;74.97;102214.00;5044224;28;20048;-71
2022/01/21 08:53:38;;;;;;;209.20;197.43;;;;;;;2.73;72.98;102215.09;5029076;28;20037;-71
2022/01/21 08:56:06;;;;;;;144.02;136.70;;;;;;;2.90;72.69;102217.72;5033616;28;20492;-71
2022/01/21 08:58:33;;;;;;;143.38;136.57;;;;;;;3.55;70.18;102207.47;5048163;28;20586;-71
2022/01/21 09:01:00;;;;;;;262.02;248.70;;;;;;;3.86;68.86;102211.81;5049847;28;20406;-71
2022/01/21 09:03:26;;;;;;;287.27;271.17;;;;;;;4.50;66.22;102222.06;5048397;28;20045;-71
2022/01/21 09:05:54;;;;;;;306.17;291.30;;;;;;;4.51;66.44;102217.75;5047193;28;20497;-71
2022/01/21 09:08:23;;;;;;;240.63;229.00;;;;;;;4.99;65.00;102221.88;5048471;28;20087;-71
2022/01/21 09:10:49;;;;;;;327.48;311.08;;;;;;;5.56;63.35;102221.47;5031775;28;20046;-70
2022/01/21 09:13:16;;;;;;;313.27;297.73;;;;;;;5.71;61.74;102223.09;5028550;28;20046;-70
2022/01/21 09:15:42;;;;;;;261.40;249.45;;;;;;;6.29;60.84;102226.91;5033686;28;20106;-70
2022/01/21 09:18:09;;;;;;;376.40;348.67;;;;;;;6.50;59.38;102210.22;5030516;28;20045;-70
2022/01/21 09:20:38;;;;;;;313.23;298.08;;;;;;;6.12;60.06;102222.75;5049681;28;20676;-70
2022/01/21 09:23:06;;;;;;;335.83;319.90;;;;;;;6.68;59.39;102232.56;5052063;28;20094;-71
2022/01/21 09:25:32;;;;;;;261.55;249.10;;;;;;;6.96;57.89;102220.91;5050899;28;20072;-70
2022/01/21 09:28:01;;;;;;;441.45;417.63;;;;;;;6.89;57.22;102213.19;5051997;28;20044;-71
2022/01/21 09:30:27;;;;;;;411.70;389.55;;;;;;;7.03;57.07;102213.84;5048868;28;20045;-71
2022/01/21 09:32:54;;;;;;;378.33;359.75;;;;;;;6.88;57.16;102214.06;5049929;28;20103;-71
2022/01/21 09:35:20;;;;;;;482.58;455.50;;;;;;;7.53;55.49;102203.56;5043846;28;20057;-70
2022/01/21 09:37:47;;;;;;;525.72;496.67;;;;;;;7.59;53.59;102205.19;5046253;28;20102;-70
2022/01/21 09:40:15;;;;;;;565.80;534.50;;;;;;;7.76;52.87;102204.03;5050659;28;20099;-69
2022/01/21 09:42:41;;;;;;;562.95;532.35;;;;;;;7.97;52.97;102202.81;5046995;28;20045;-69
2022/01/21 09:45:12;;;;;;;557.22;526.65;;;;;;;8.58;51.23;102212.13;5046638;28;20049;-69
2022/01/21 09:47:45;;;;;;;;;;;;;;;8.61;49.10;102210.31;5051585;28;20095;-69
2022/01/21 09:50:14;;;;;;;525.67;495.90;;;;;;;8.09;49.67;102206.97;5050470;28;19949;-68
2022/01/21 09:52:43;;;;;;;460.42;437.02;;;;;;;7.86;50.23;102225.66;5051107;28;20044;-68
2022/01/21 09:55:09;;;;;;;499.67;470.00;;;;;;;7.78;50.13;102225.78;5051068;28;20063;-68
2022/01/21 09:57:38;;;;;;;488.95;462.20;;;;;;;7.93;49.52;102219.41;5049841;28;20041;-68
2022/01/21 10:00:07;;;;;;;487.40;460.42;;;;;;;7.57;50.70;102228.72;5046723;28;20420;-68
2022/01/21 10:02:34;;;;;;;446.35;423.13;;;;;;;7.54;50.42;102225.31;5042803;28;20045;-67
2022/01/21 10:05:01;;;;;;;409.25;388.92;;;;;;;7.89;50.12;102229.94;5047877;28;20053;-68
2022/01/21 10:07:30;;;;;;;450.50;426.45;;;;;;;7.52;50.75;102237.50;5044717;28;20045;-68
2022/01/21 10:10:00;;;;;;;381.42;362.13;;;;;;;7.08;51.08;102240.75;5047046;28;20053;-68
2022/01/21 10:12:26;;;;;;;409.08;388.42;;;;;;;7.54;50.06;102227.91;5047543;28;20048;-67
2022/01/21 10:14:54;;;;;;;472.10;445.60;;;;;;;6.95;50.65;102239.19;5048027;28;20136;-68
2022/01/21 10:17:21;;;;;;;482.92;457.23;;;;;;;7.37;50.37;102233.38;5048411;28;20045;-69
2022/01/21 10:19:51;;;;;;;419.55;397.63;;;;;;;8.04;48.87;102235.78;5049504;28;20053;-70
2022/01/21 10:22:23;;;;;;;394.25;374.67;;;;;;;8.14;49.00;102239.06;5038802;28;20045;-70
2022/01/21 10:24:57;;;;;;;512.50;485.05;;;;;;;7.92;48.75;102240.31;5048790;28;20411;-70
2022/01/21 10:27:25;;;;;;;559.90;517.75;;;;;;;7.13;48.99;102252.84;5036590;28;20044;-70
2022/01/21 10:29:52;;;;;;;423.98;398.25;;;;;;;6.17;50.87;102247.88;5047838;28;20049;-70
2022/01/21 10:32:32;;;;;;;292.92;277.67;;;;;;;5.62;52.81;102254.38;5045020;28;20109;-69
2022/01/21 10:34:59;;;;;;;246.93;234.82;;;;;;;5.27;55.15;102263.31;5039744;28;20111;-69
2022/01/21 10:37:27;;;;;;;209.27;199.65;;;;;;;5.20;55.12;102265.94;5027709;28;20491;-70
2022/01/21 10:39:59;;;;;;;170.00;162.43;;;;;;;4.71;56.63;102279.16;5028730;28;20060;-70
2022/01/21 10:42:27;;;;;;;278.35;265.00;;;;;;;5.66;55.02;102279.50;5042288;28;20049;-71
2022/01/21 10:44:54;;;;;;;319.77;304.92;;;;;;;6.03;53.80;102267.09;5028141;28;20049;-70
2022/01/21 10:47:27;;;;;;;308.38;294.48;;;;;;;6.93;51.71;102277.47;5028065;28;20091;-70
2022/01/21 10:50:04;;;;;;;456.40;431.02;;;;;;;7.85;49.20;102268.31;5041550;28;20064;-70
2022/01/21 10:52:33;;;;;;;331.35;314.52;;;;;;;8.05;46.60;102265.38;5049434;28;20081;-70
2022/01/21 10:54:59;;;;;;;309.77;295.70;;;;;;;7.96;46.88;102265.50;5050345;28;20049;-70
2022/01/21 10:57:28;;;;;;;381.88;362.83;;;;;;;8.66;45.82;102267.75;5050298;28;20095;-70
2022/01/21 10:59:58;;;;;;;326.60;311.85;;;;;;;8.51;46.25;102261.06;5050474;28;20059;-70
2022/01/21 11:02:36;;;;;;;332.08;316.58;;;;;;;9.19;45.50;102262.28;5049204;28;20401;-71
2022/01/21 11:05:07;;;;;;;291.83;278.77;;;;;;;9.37;43.76;102253.16;5050691;28;20065;-71
2022/01/21 11:07:50;;;;;;;;;;;;;;;8.48;44.93;102258.50;5051019;28;20037;-70
2022/01/21 11:10:43;;;;;;;288.42;275.63;;;;;;;8.77;44.37;102256.19;5043855;28;19943;-70
2022/01/21 11:13:31;;;;;;;306.33;292.20;;;;;;;8.74;43.46;102255.38;5050001;28;20043;-70
2022/01/21 11:15:59;;;;;;;250.18;238.70;;;;;;;9.22;42.68;102251.75;5050427;28;20045;-70
2022/01/21 11:18:29;;;;;;;274.63;260.80;;;;;;;8.52;43.16;102260.19;5047646;28;20051;-71
2022/01/21 11:21:04;;;;;;;217.03;207.77;;;;;;;9.08;41.28;102269.50;5049252;28;20040;-71
2022/01/21 11:23:33;;;;;;;300.80;286.38;;;;;;;8.79;41.53;102266.63;5050335;28;20345;-71
2022/01/21 11:26:02;;;;;;;305.25;289.70;;;;;;;8.13;42.86;102274.78;5050639;28;20033;-71
2022/01/21 11:28:38;;;;;;;214.25;204.90;;;;;;;8.47;43.39;102266.38;5047326;28;20493;-70
2022/01/21 11:31:05;;;;;;;403.20;378.58;;;;;;;8.16;42.97;102274.75;5045763;28;20049;-71
2022/01/21 11:33:33;;;;;;;298.80;283.13;;;;;;;7.58;44.49;102277.41;5047212;28;20471;-71
2022/01/21 11:36:00;;;;;;;190.35;181.50;;;;;;;7.83;45.78;102273.53;5048289;28;20475;-71
2022/01/21 11:38:27;;;;;;;158.02;150.43;;;;;;;8.03;44.63;102283.66;5046356;28;20045;-71
2022/01/21 11:40:54;;;;;;;183.82;175.82;;;;;;;8.45;44.45;102271.66;5046964;28;20447;-71
2022/01/21 11:43:22;;;;;;;157.60;150.40;;;;;;;8.39;43.81;102273.50;5047729;28;20044;-71